createdAt,value
2018-10-01T00:01:23.614Z,10.07
2018-10-01T00:03:51.205Z,9.93
2018-10-01T00:06:18.726Z,9.80
2018-10-01T00:08:46.270Z,9.69
2018-10-01T00:11:13.821Z,9.63
2018-10-01T00:13:41.402Z,9.62
2018-10-01T00:16:08.806Z,9.57
2018-10-01T00:18:36.302Z,9.53
2018-10-01T00:21:09.442Z,9.55
2018-10-01T00:23:37.333Z,9.60
2018-10-01T00:26:04.820Z,9.58
2018-10-01T00:28:32.209Z,9.53
2018-10-01T00:31:00.005Z,9.48
2018-10-01T00:33:27.401Z,9.45
2018-10-01T00:35:54.782Z,9.42
2018-10-01T00:38:22.260Z,9.42
2018-10-01T00:40:49.791Z,9.43
2018-10-01T00:43:17.473Z,9.49
2018-10-01T00:45:44.889Z,9.59
2018-10-01T00:48:12.280Z,9.66
2018-10-01T00:50:39.710Z,9.74
2018-10-01T00:53:07.156Z,9.74
2018-10-01T00:55:34.570Z,9.67
2018-10-01T00:58:01.978Z,9.66
2018-10-01T01:00:29.592Z,9.68
2018-10-01T01:02:57.014Z,9.72
2018-10-01T01:05:24.410Z,9.77
2018-10-01T01:07:52.044Z,9.91
2018-10-01T01:10:19.458Z,9.98
2018-10-01T01:12:46.874Z,9.95
2018-10-01T01:15:14.356Z,9.94
2018-10-01T01:17:41.830Z,9.87
2018-10-01T01:20:09.291Z,9.82
2018-10-01T01:22:36.724Z,9.82
2018-10-01T01:25:04.348Z,9.86
2018-10-01T01:27:31.746Z,9.93
2018-10-01T01:29:59.194Z,9.88
2018-10-01T01:32:26.810Z,9.80
2018-10-01T01:34:54.198Z,9.77
2018-10-01T01:37:21.710Z,9.78
2018-10-01T01:39:49.118Z,9.81
2018-10-01T01:42:16.594Z,9.82
2018-10-01T01:44:44.034Z,9.80
2018-10-01T01:47:11.544Z,9.76
2018-10-01T01:49:38.928Z,9.70
2018-10-01T01:52:06.504Z,9.67
2018-10-01T01:54:33.924Z,9.66
2018-10-01T01:57:01.322Z,9.65
2018-10-01T01:59:28.886Z,9.65
2018-10-01T02:01:56.302Z,9.64
2018-10-01T02:04:23.816Z,9.61
2018-10-01T02:06:51.458Z,9.56
2018-10-01T02:09:18.850Z,9.54
2018-10-01T02:11:46.268Z,9.49
2018-10-01T02:14:13.786Z,9.42
2018-10-01T02:16:41.310Z,9.33
2018-10-01T02:19:08.970Z,9.24
2018-10-01T02:21:36.450Z,9.15
2018-10-01T02:24:03.898Z,9.11
2018-10-01T02:26:31.386Z,9.09
2018-10-01T02:28:58.799Z,9.13
2018-10-01T02:31:26.362Z,9.21
2018-10-01T02:33:53.774Z,9.16
2018-10-01T02:36:21.214Z,9.10
2018-10-01T02:38:48.677Z,9.04
2018-10-01T02:41:16.088Z,9.02
2018-10-01T02:43:43.565Z,9.00
2018-10-01T02:46:11.053Z,9.04
2018-10-01T02:48:38.602Z,9.11
2018-10-01T02:51:06.392Z,9.13
2018-10-01T02:54:38.274Z,9.15
2018-10-01T02:57:05.784Z,9.15
2018-10-01T02:59:33.717Z,9.16
2018-10-01T03:02:01.143Z,9.19
2018-10-01T03:04:28.569Z,9.24
2018-10-01T03:06:56.101Z,9.32
2018-10-01T03:09:23.621Z,9.40
2018-10-01T03:11:51.112Z,9.44
2018-10-01T03:14:18.495Z,9.42
2018-10-01T03:16:45.939Z,9.40
2018-10-01T03:19:13.383Z,9.36
2018-10-01T03:21:40.961Z,9.33
2018-10-01T03:24:08.439Z,9.32
2018-10-01T03:26:35.930Z,9.33
2018-10-01T03:29:03.347Z,9.37
2018-10-01T03:31:30.751Z,9.46
2018-10-01T03:33:58.243Z,9.53
2018-10-01T03:36:26.445Z,9.62
2018-10-01T03:38:54.414Z,9.64
2018-10-01T03:41:21.905Z,9.63
2018-10-01T03:43:49.299Z,9.60
2018-10-01T03:46:17.023Z,9.58
2018-10-01T03:48:44.683Z,9.62
2018-10-01T03:51:12.141Z,9.64
2018-10-01T03:53:39.741Z,9.66
2018-10-01T03:56:07.450Z,9.65
2018-10-01T03:58:34.871Z,9.66
2018-10-01T04:01:05.525Z,9.64
2018-10-01T04:03:32.992Z,9.60
2018-10-01T04:06:00.386Z,9.58
2018-10-01T04:08:27.762Z,9.59
2018-10-01T04:10:55.206Z,9.53
2018-10-01T04:13:22.609Z,9.48
2018-10-01T04:15:50.014Z,9.57
2018-10-01T04:18:17.539Z,9.65
2018-10-01T04:20:44.976Z,9.78
2018-10-01T04:23:12.344Z,9.76
2018-10-01T04:25:39.825Z,9.73
2018-10-01T04:28:07.383Z,9.69
2018-10-01T04:30:34.909Z,9.65
2018-10-01T04:33:02.362Z,9.61
2018-10-01T04:35:29.931Z,9.60
2018-10-01T04:37:57.309Z,9.61
2018-10-01T04:40:24.790Z,9.61
2018-10-01T04:42:52.179Z,9.68
2018-10-01T04:45:19.611Z,9.74
2018-10-01T04:47:47.075Z,9.80
2018-10-01T04:50:14.511Z,9.85
2018-10-01T04:52:42.001Z,9.96
2018-10-01T04:55:09.639Z,10.04
2018-10-01T04:57:37.069Z,10.11
2018-10-01T05:00:05.673Z,10.12
2018-10-01T05:02:33.119Z,10.11
2018-10-01T05:05:00.489Z,10.05
2018-10-01T05:07:28.002Z,10.01
2018-10-01T05:09:55.409Z,9.98
2018-10-01T05:12:22.841Z,10.03
2018-10-01T05:14:50.333Z,10.16
2018-10-01T05:17:18.189Z,10.22
2018-10-01T05:19:45.633Z,10.19
2018-10-01T05:22:13.249Z,10.20
2018-10-01T05:24:40.864Z,10.28
2018-10-01T05:27:08.355Z,10.39
2018-10-01T05:29:35.799Z,10.48
2018-10-01T05:32:03.319Z,10.50
2018-10-01T05:34:30.707Z,10.47
2018-10-01T05:36:58.257Z,10.47
2018-10-01T05:39:25.679Z,10.51
2018-10-01T05:41:53.171Z,10.60
2018-10-01T05:44:20.601Z,10.60
2018-10-01T05:46:48.017Z,10.62
2018-10-01T05:49:15.449Z,10.66
2018-10-01T05:51:42.939Z,10.73
2018-10-01T05:54:10.399Z,10.82
2018-10-01T05:56:37.823Z,10.85
2018-10-01T05:59:05.469Z,10.84
2018-10-01T06:01:33.045Z,11.03
2018-10-01T06:04:00.447Z,11.14
2018-10-01T06:06:27.881Z,11.14
2018-10-01T06:08:55.406Z,11.26
2018-10-01T06:11:23.575Z,11.37
2018-10-01T06:13:50.960Z,11.49
2018-10-01T06:16:18.438Z,11.57
2018-10-01T06:18:45.801Z,11.64
2018-10-01T06:21:13.215Z,11.75
2018-10-01T06:23:40.661Z,11.87
2018-10-01T06:26:08.157Z,11.99
2018-10-01T06:28:35.594Z,12.13
2018-10-01T06:31:03.047Z,12.29
2018-10-01T06:33:30.406Z,12.51
2018-10-01T06:35:57.810Z,12.66
2018-10-01T06:38:25.260Z,12.84
2018-10-01T06:40:52.700Z,12.98
2018-10-01T06:43:20.203Z,13.20
2018-10-01T06:45:47.674Z,13.30
2018-10-01T06:48:15.146Z,13.42
2018-10-01T06:50:42.628Z,13.58
2018-10-01T06:53:10.110Z,13.72
2018-10-01T06:55:37.546Z,13.78
2018-10-01T06:58:05.086Z,13.86
2018-10-01T07:00:32.574Z,13.92
2018-10-01T07:02:59.978Z,14.00
2018-10-01T07:05:27.443Z,14.14
2018-10-01T07:07:55.010Z,14.33
2018-10-01T07:10:22.489Z,14.53
2018-10-01T07:12:49.880Z,14.70
2018-10-01T07:15:17.298Z,14.86
2018-10-01T07:17:44.697Z,15.04
2018-10-01T07:20:12.125Z,15.22
2018-10-01T07:22:39.801Z,15.35
2018-10-01T07:27:41.684Z,15.46
2018-10-01T07:30:09.106Z,15.48
2018-10-01T07:32:39.575Z,15.44
2018-10-01T07:35:07.135Z,15.34
2018-10-01T07:37:34.565Z,15.31
2018-10-01T07:40:01.997Z,15.22
2018-10-01T07:42:29.578Z,15.20
2018-10-01T07:44:57.120Z,15.08
2018-10-01T07:47:24.633Z,14.98
2018-10-01T07:49:52.121Z,14.90
2018-10-01T07:52:19.541Z,14.89
2018-10-01T07:54:46.957Z,14.88
2018-10-01T07:57:14.504Z,14.89
2018-10-01T07:59:42.105Z,14.96
2018-10-01T08:02:09.495Z,15.06
2018-10-01T08:04:37.019Z,15.21
2018-10-01T08:07:04.454Z,15.42
2018-10-01T08:09:32.052Z,15.65
2018-10-01T08:11:59.461Z,15.87
2018-10-01T08:14:26.861Z,15.90
2018-10-01T08:16:54.257Z,15.90
2018-10-01T08:19:21.715Z,15.82
2018-10-01T08:21:49.182Z,15.85
2018-10-01T08:24:16.745Z,15.86
2018-10-01T08:26:44.278Z,15.86
2018-10-01T08:29:11.776Z,15.89
2018-10-01T08:31:39.170Z,16.13
2018-10-01T08:34:06.637Z,16.39
2018-10-01T08:36:34.159Z,16.60
2018-10-01T08:39:01.728Z,17.03
2018-10-01T08:41:29.323Z,17.97
2018-10-01T08:43:56.714Z,18.76
2018-10-01T08:46:24.119Z,19.24
2018-10-01T08:48:55.521Z,19.66
2018-10-01T08:51:28.541Z,20.17
2018-10-01T08:54:34.294Z,21.02
2018-10-01T08:57:01.845Z,22.26
2018-10-01T08:59:29.433Z,23.81
2018-10-01T09:01:58.141Z,25.91
2018-10-01T09:04:25.622Z,28.15
2018-10-01T09:06:53.226Z,29.39
2018-10-01T09:09:20.518Z,30.01
2018-10-01T09:11:47.997Z,29.40
2018-10-01T09:14:15.435Z,27.47
2018-10-01T09:16:42.974Z,25.78
2018-10-01T09:19:10.392Z,24.89
2018-10-01T09:21:37.937Z,24.20
2018-10-01T09:24:05.434Z,23.28
2018-10-01T09:26:32.912Z,22.39
2018-10-01T09:29:00.321Z,21.65
2018-10-01T09:31:27.832Z,21.17
2018-10-01T09:33:55.282Z,20.49
2018-10-01T09:36:22.923Z,19.79
2018-10-01T09:38:50.404Z,19.41
2018-10-01T09:41:18.118Z,19.03
2018-10-01T09:43:45.568Z,18.78
2018-10-01T09:46:13.162Z,18.50
2018-10-01T09:48:40.565Z,18.33
2018-10-01T09:51:07.996Z,18.27
2018-10-01T09:53:35.553Z,18.29
2018-10-01T09:56:03.093Z,18.46
2018-10-01T09:58:30.549Z,18.46
2018-10-01T10:01:03.786Z,18.24
2018-10-01T10:03:31.235Z,17.94
2018-10-01T10:05:58.690Z,17.79
2018-10-01T10:08:26.171Z,17.59
2018-10-01T10:10:53.623Z,17.38
2018-10-01T10:13:21.105Z,17.17
2018-10-01T10:15:48.850Z,17.03
2018-10-01T10:18:16.451Z,16.87
2018-10-01T10:20:43.856Z,16.75
2018-10-01T10:23:11.351Z,16.70
2018-10-01T10:25:38.802Z,16.49
2018-10-01T10:28:06.352Z,16.42
2018-10-01T10:30:33.957Z,16.50
2018-10-01T10:33:01.567Z,16.55
2018-10-01T10:35:29.298Z,16.64
2018-10-01T10:37:56.731Z,17.12
2018-10-01T10:40:24.127Z,17.80
2018-10-01T10:42:51.560Z,18.57
2018-10-01T10:45:19.097Z,19.11
2018-10-01T10:47:46.573Z,19.62
2018-10-01T10:50:14.194Z,19.88
2018-10-01T10:52:41.994Z,19.82
2018-10-01T10:55:09.426Z,19.44
2018-10-01T10:57:36.955Z,18.90
2018-10-01T11:00:04.595Z,18.74
2018-10-01T11:02:32.215Z,18.75
2018-10-01T11:04:59.575Z,19.07
2018-10-01T11:07:27.166Z,19.41
2018-10-01T11:09:54.602Z,19.73
2018-10-01T11:12:22.110Z,19.85
2018-10-01T11:14:49.566Z,20.04
2018-10-01T11:17:17.142Z,20.16
2018-10-01T11:19:44.608Z,20.23
2018-10-01T11:22:13.497Z,20.14
2018-10-01T11:24:41.188Z,20.40
2018-10-01T11:27:08.730Z,20.49
2018-10-01T11:29:36.548Z,20.56
2018-10-01T11:32:04.048Z,20.52
2018-10-01T11:34:31.583Z,20.35
2018-10-01T11:36:59.367Z,20.11
2018-10-01T11:39:26.897Z,19.84
2018-10-01T11:41:54.344Z,19.44
2018-10-01T11:44:21.794Z,19.08
2018-10-01T11:46:49.196Z,18.80
2018-10-01T11:49:16.658Z,18.94
2018-10-01T11:51:44.287Z,19.16
2018-10-01T11:54:11.688Z,19.47
2018-10-01T11:56:39.229Z,19.70
2018-10-01T11:59:06.715Z,20.01
2018-10-01T12:01:34.208Z,20.15
2018-10-01T12:04:01.706Z,20.10
2018-10-01T12:06:29.076Z,19.89
2018-10-01T12:08:56.672Z,19.49
2018-10-01T12:11:24.123Z,19.22
2018-10-01T12:13:51.661Z,19.00
2018-10-01T12:16:19.136Z,18.82
2018-10-01T12:18:46.654Z,18.73
2018-10-01T12:21:14.285Z,18.59
2018-10-01T12:23:41.843Z,18.29
2018-10-01T12:26:09.328Z,18.17
2018-10-01T12:28:36.856Z,18.08
2018-10-01T12:31:04.348Z,18.04
2018-10-01T12:33:31.838Z,18.07
2018-10-01T12:35:59.229Z,18.09
2018-10-01T12:38:26.666Z,18.24
2018-10-01T12:40:56.873Z,18.17
2018-10-01T12:43:24.667Z,17.95
2018-10-01T12:45:52.170Z,17.58
2018-10-01T12:48:19.825Z,17.28
2018-10-01T12:50:47.239Z,17.13
2018-10-01T12:53:14.830Z,16.96
2018-10-01T12:55:42.374Z,16.98
2018-10-01T12:58:09.879Z,17.07
2018-10-01T13:00:37.423Z,17.06
2018-10-01T13:03:04.987Z,17.07
2018-10-01T13:05:32.531Z,17.07
2018-10-01T13:08:01.129Z,17.15
2018-10-01T13:10:28.767Z,17.05
2018-10-01T13:12:56.669Z,17.09
2018-10-01T13:15:24.321Z,17.04
2018-10-01T13:17:51.752Z,16.96
2018-10-01T13:20:19.363Z,16.96
2018-10-01T13:22:46.848Z,17.07
2018-10-01T13:25:14.366Z,17.21
2018-10-01T13:27:41.943Z,17.34
2018-10-01T13:30:09.615Z,17.45
2018-10-01T13:32:37.062Z,17.38
2018-10-01T13:35:04.583Z,17.24
2018-10-01T13:37:32.070Z,16.99
2018-10-01T13:39:59.574Z,16.67
2018-10-01T13:42:27.107Z,16.33
2018-10-01T13:44:54.562Z,16.15
2018-10-01T13:47:22.153Z,16.20
2018-10-01T13:49:49.708Z,16.28
2018-10-01T13:52:17.481Z,16.43
2018-10-01T13:54:44.935Z,16.58
2018-10-01T13:57:12.556Z,16.81
2018-10-01T13:59:40.062Z,17.08
2018-10-01T14:02:07.580Z,17.26
2018-10-01T14:04:35.003Z,17.41
2018-10-01T14:07:02.517Z,17.55
2018-10-01T14:09:30.065Z,17.68
2018-10-01T14:11:57.660Z,17.51
2018-10-01T14:14:25.077Z,17.30
2018-10-01T14:16:52.524Z,16.67
2018-10-01T14:19:20.106Z,15.98
2018-10-01T14:21:47.574Z,15.58
2018-10-01T14:24:15.158Z,15.16
2018-10-01T14:26:42.650Z,14.82
2018-10-01T14:29:10.246Z,14.54
2018-10-01T14:31:37.713Z,14.33
2018-10-01T14:34:05.222Z,13.79
2018-10-01T14:36:32.788Z,13.36
2018-10-01T14:39:00.198Z,13.13
2018-10-01T14:41:27.693Z,12.94
2018-10-01T14:43:55.126Z,12.71
2018-10-01T14:46:22.642Z,12.66
2018-10-01T14:48:50.112Z,12.67
2018-10-01T14:51:17.656Z,12.60
2018-10-01T14:53:45.043Z,12.52
2018-10-01T14:56:12.706Z,12.64
2018-10-01T14:58:40.163Z,12.65
2018-10-01T15:01:07.614Z,12.59
2018-10-01T15:03:35.621Z,12.73
2018-10-01T15:06:03.091Z,12.63
2018-10-01T15:08:30.656Z,12.64
2018-10-01T15:10:58.329Z,12.65
2018-10-01T15:13:25.900Z,12.61
2018-10-01T15:15:53.320Z,12.49
2018-10-01T15:18:20.962Z,12.46
2018-10-01T15:20:48.314Z,12.40
2018-10-01T15:23:15.744Z,12.32
2018-10-01T15:25:43.202Z,12.39
2018-10-01T15:28:10.724Z,12.40
2018-10-01T15:30:38.255Z,12.39
2018-10-01T15:33:06.082Z,12.42
2018-10-01T15:35:33.574Z,12.45
2018-10-01T15:38:01.014Z,12.54
2018-10-01T15:40:28.625Z,12.57
2018-10-01T15:42:56.470Z,12.64
2018-10-01T15:45:24.230Z,12.84
2018-10-01T15:47:51.654Z,12.94
2018-10-01T15:50:19.104Z,13.06
2018-10-01T15:52:46.556Z,13.19
2018-10-01T15:55:14.190Z,13.29
2018-10-01T15:57:41.618Z,13.33
2018-10-01T16:00:09.162Z,13.33
2018-10-01T16:02:36.778Z,13.36
2018-10-01T16:05:06.260Z,13.45
2018-10-01T16:07:35.034Z,13.49
2018-10-01T16:10:02.622Z,13.44
2018-10-01T16:12:30.072Z,13.46
2018-10-01T16:17:56.643Z,13.42
2018-10-01T16:20:24.114Z,13.36
2018-10-01T16:22:51.701Z,13.18
2018-10-01T16:25:19.186Z,13.08
2018-10-01T16:27:46.604Z,13.05
2018-10-01T16:30:14.049Z,13.01
2018-10-01T16:32:41.548Z,12.95
2018-10-01T16:35:09.453Z,12.90
2018-10-01T16:37:36.930Z,12.74
2018-10-01T16:40:04.557Z,12.70
2018-10-01T16:42:32.035Z,12.59
2018-10-01T16:44:59.523Z,12.44
2018-10-01T16:47:27.004Z,12.33
2018-10-01T16:49:54.450Z,12.22
2018-10-01T16:52:22.023Z,12.16
2018-10-01T16:54:49.654Z,12.27
2018-10-01T16:57:17.260Z,12.33
2018-10-01T16:59:44.754Z,12.12
2018-10-01T17:02:12.510Z,12.02
2018-10-01T17:04:40.142Z,11.86
2018-10-01T17:07:07.654Z,11.71
2018-10-01T17:09:35.166Z,11.44
2018-10-01T17:12:02.555Z,11.22
2018-10-01T17:14:30.128Z,11.02
2018-10-01T17:16:57.664Z,10.91
2018-10-01T17:19:25.200Z,10.80
2018-10-01T17:21:52.676Z,10.68
2018-10-01T17:24:20.180Z,10.73
2018-10-01T17:26:47.655Z,10.57
2018-10-01T17:29:15.188Z,10.52
2018-10-01T17:31:42.726Z,10.44
2018-10-01T17:34:10.182Z,10.41
2018-10-01T17:36:37.791Z,10.35
2018-10-01T17:39:07.958Z,10.26
2018-10-01T17:41:35.643Z,10.23
2018-10-01T17:44:03.354Z,10.29
2018-10-01T17:46:30.955Z,10.50
2018-10-01T17:48:58.428Z,10.51
2018-10-01T17:51:25.947Z,10.45
2018-10-01T17:53:53.495Z,10.48
2018-10-01T17:56:20.987Z,10.45
2018-10-01T17:58:48.426Z,10.49
2018-10-01T18:01:16.317Z,10.70
2018-10-01T18:03:43.797Z,10.80
2018-10-01T18:06:11.937Z,10.88
2018-10-01T18:08:39.467Z,10.75
2018-10-01T18:11:07.017Z,10.69
2018-10-01T18:13:34.638Z,10.78
2018-10-01T18:16:02.139Z,10.76
2018-10-01T18:18:29.571Z,10.68
2018-10-01T18:20:57.060Z,10.64
2018-10-01T18:23:24.570Z,10.61
2018-10-01T18:25:52.026Z,10.59
2018-10-01T18:28:19.502Z,10.59
2018-10-01T18:30:47.154Z,10.57
2018-10-01T18:33:14.594Z,10.54
2018-10-01T18:35:42.233Z,10.48
2018-10-01T18:38:09.798Z,10.45
2018-10-01T18:40:37.298Z,10.62
2018-10-01T18:43:04.782Z,10.75
2018-10-01T18:45:32.342Z,10.69
2018-10-01T18:47:59.779Z,10.53
2018-10-01T18:50:27.405Z,10.41
2018-10-01T18:52:54.846Z,10.28
2018-10-01T18:55:22.804Z,10.17
2018-10-01T18:57:50.710Z,10.12
2018-10-01T19:00:18.280Z,10.38
2018-10-01T19:02:45.848Z,10.27
2018-10-01T19:05:13.390Z,10.02
2018-10-01T19:07:41.828Z,9.85
2018-10-01T19:10:09.997Z,9.71
2018-10-01T19:12:37.543Z,9.71
2018-10-01T19:15:07.543Z,9.82
2018-10-01T19:17:35.037Z,9.83
2018-10-01T19:20:02.719Z,9.90
2018-10-01T19:22:30.294Z,9.95
2018-10-01T19:24:57.812Z,9.98
2018-10-01T19:27:25.480Z,10.05
2018-10-01T19:29:53.504Z,10.07
2018-10-01T19:32:21.101Z,10.05
2018-10-01T19:34:48.583Z,10.04
2018-10-01T19:37:16.105Z,10.02
2018-10-01T19:39:43.687Z,9.95
2018-10-01T19:42:11.139Z,9.87
2018-10-01T19:44:38.607Z,9.86
2018-10-01T19:47:06.416Z,9.79
2018-10-01T19:49:33.878Z,9.76
2018-10-01T19:52:01.811Z,9.75
2018-10-01T19:54:29.231Z,9.74
2018-10-01T19:56:56.703Z,9.82
2018-10-01T19:59:24.250Z,9.88
2018-10-01T20:01:51.763Z,9.88
2018-10-01T20:04:19.291Z,9.81
2018-10-01T20:06:46.795Z,9.79
2018-10-01T20:09:14.344Z,9.78
2018-10-01T20:11:42.043Z,9.66
2018-10-01T20:14:09.513Z,9.57
2018-10-01T20:16:37.044Z,9.38
2018-10-01T20:19:04.757Z,9.28
2018-10-01T20:21:32.359Z,9.09
2018-10-01T20:24:00.133Z,8.98
2018-10-01T20:26:27.650Z,8.89
2018-10-01T20:28:55.657Z,8.66
2018-10-01T20:31:22.835Z,8.50
2018-10-01T20:33:50.366Z,8.33
2018-10-01T20:36:17.996Z,8.13
2018-10-01T20:38:45.450Z,8.04
2018-10-01T20:41:13.131Z,7.94
2018-10-01T20:43:40.614Z,7.86
2018-10-01T20:46:08.221Z,7.85
2018-10-01T20:48:35.672Z,7.87
2018-10-01T20:51:03.195Z,7.96
2018-10-01T20:53:30.718Z,8.14
2018-10-01T20:55:58.161Z,8.22
2018-10-01T20:58:25.659Z,8.19
2018-10-01T21:00:53.144Z,8.20
2018-10-01T21:03:20.615Z,8.18
2018-10-01T21:05:48.923Z,8.34
2018-10-01T21:08:16.348Z,8.42
2018-10-01T21:10:44.117Z,8.37
2018-10-01T21:13:11.583Z,8.41
2018-10-01T21:15:39.182Z,8.44
2018-10-01T21:18:06.795Z,8.32
2018-10-01T21:20:34.361Z,8.22
2018-10-01T21:23:01.778Z,8.16
2018-10-01T21:25:29.242Z,8.14
2018-10-01T21:27:56.998Z,8.12
2018-10-01T21:30:24.453Z,8.25
2018-10-01T21:32:51.845Z,8.25
2018-10-01T21:35:19.335Z,8.23
2018-10-01T21:37:46.806Z,8.28
2018-10-01T21:40:15.824Z,8.39
2018-10-01T21:42:43.540Z,8.23
2018-10-01T21:45:12.179Z,8.13
2018-10-01T21:47:39.663Z,8.12
2018-10-01T21:50:07.765Z,7.94
2018-10-01T21:52:35.483Z,7.73
2018-10-01T21:55:03.035Z,7.65
2018-10-01T21:57:30.613Z,7.62
2018-10-01T21:59:58.179Z,7.44
2018-10-01T22:02:25.603Z,7.42
2018-10-01T22:04:53.232Z,7.24
2018-10-01T22:07:20.874Z,7.13
2018-10-01T22:09:48.915Z,7.04
2018-10-01T22:12:16.385Z,6.96
2018-10-01T22:14:44.047Z,6.79
2018-10-01T22:17:11.581Z,6.74
2018-10-01T22:19:39.237Z,6.67
2018-10-01T22:22:07.008Z,6.82
2018-10-01T22:24:34.691Z,6.81
2018-10-01T22:27:02.479Z,6.71
2018-10-01T22:29:29.902Z,6.64
2018-10-01T22:31:57.335Z,6.54
2018-10-01T22:34:24.827Z,6.48
2018-10-01T22:36:52.472Z,6.49
2018-10-01T22:39:19.882Z,6.54
2018-10-01T22:41:47.387Z,6.43
2018-10-01T22:44:14.955Z,6.44
2018-10-01T22:46:42.379Z,6.55
2018-10-01T22:49:09.821Z,6.66
2018-10-01T22:51:37.329Z,6.58
2018-10-01T22:54:04.892Z,6.53
2018-10-01T22:56:32.695Z,6.68
2018-10-01T22:59:00.221Z,6.65
2018-10-01T23:01:28.070Z,6.59
2018-10-01T23:03:55.493Z,6.56
2018-10-01T23:06:23.392Z,6.50
2018-10-01T23:08:50.888Z,6.44
2018-10-01T23:11:18.340Z,6.29
2018-10-01T23:13:45.784Z,6.22
2018-10-01T23:16:13.256Z,6.15
2018-10-01T23:18:40.794Z,6.06
2018-10-01T23:21:08.216Z,6.16
2018-10-01T23:23:35.658Z,6.16
2018-10-01T23:26:03.132Z,6.12
2018-10-01T23:28:30.563Z,6.28
2018-10-01T23:30:57.956Z,6.52
2018-10-01T23:33:25.364Z,6.66
2018-10-01T23:35:52.890Z,6.63
2018-10-01T23:38:20.299Z,6.59
2018-10-01T23:40:48.734Z,6.56
2018-10-01T23:43:16.146Z,6.56
2018-10-01T23:45:43.568Z,6.54
2018-10-01T23:48:11.040Z,6.67
2018-10-01T23:50:38.510Z,6.65
2018-10-01T23:53:05.974Z,6.55
2018-10-01T23:55:33.568Z,6.42
2018-10-01T23:58:01.060Z,6.29
